Time;durP1;ratioP1;P1;durP2;ratioP2;P2;SDS_P1;SDS_P2;PMS_P1;PMS_P2;Temp;Humidity;BMP_temperature;BMP_pressure;BME280_temperature;BME280_humidity;BME280_pressure;Samples;Min_cycle;Max_cycle;Signal;HPM_P1;HPM_P2
2022/03/27 00:01:25;;;;;;;11.90;5.93;;;;;;;10.20;74.50;101373.69;4902923;29;20035;-81
2022/03/27 00:03:50;;;;;;;12.65;6.63;;;;;;;10.15;74.57;101382.53;4921677;29;20090;-81
2022/03/27 00:06:16;;;;;;;13.02;7.05;;;;;;;10.04;74.65;101383.25;4921199;29;20442;-80
2022/03/27 00:08:41;;;;;;;36.38;7.68;;;;;;;10.03;74.87;101379.69;4921655;29;20043;-80
2022/03/27 00:11:26;;;;;;;10.85;5.30;;;;;;;9.93;75.49;101373.88;4922784;29;20043;-80
2022/03/27 00:13:52;;;;;;;;;;;;;;;10.02;75.76;101377.19;4919719;29;20032;-80
2022/03/27 00:16:17;;;;;;;12.45;6.97;;;;;;;10.13;75.63;101381.06;4904302;29;20391;-81
2022/03/27 00:18:43;;;;;;;16.80;8.55;;;;;;;10.19;75.41;101380.19;4920697;29;20095;-82
2022/03/27 00:21:09;;;;;;;15.82;6.85;;;;;;;10.11;75.89;101378.56;4921310;29;20115;-80
2022/03/27 00:23:34;;;;;;;10.35;5.70;;;;;;;10.14;75.76;101382.75;4920759;29;20051;-80
2022/03/27 00:26:01;;;;;;;12.60;5.35;;;;;;;10.13;75.63;101383.78;4921796;29;20508;-80
2022/03/27 00:28:31;;;;;;;15.35;7.28;;;;;;;9.97;76.25;101377.00;4921332;29;20024;-80
2022/03/27 00:31:00;;;;;;;11.63;6.07;;;;;;;9.89;76.81;101376.22;4915602;29;20078;-80
2022/03/27 00:33:27;;;;;;;11.77;7.05;;;;;;;9.98;76.76;101376.81;4921370;29;20074;-81
2022/03/27 00:35:53;;;;;;;9.82;6.00;;;;;;;9.89;76.30;101376.22;4902838;29;20028;-80
2022/03/27 00:38:18;;;;;;;10.98;5.60;;;;;;;9.73;77.47;101360.41;4925549;29;20063;-81
2022/03/27 00:40:44;;;;;;;13.30;6.63;;;;;;;9.74;77.51;101373.00;4926466;29;20051;-81
2022/03/27 00:43:09;;;;;;;10.18;6.85;;;;;;;9.88;76.41;101363.69;4927348;29;20063;-81
2022/03/27 00:45:34;;;;;;;11.30;5.85;;;;;;;9.67;77.50;101368.41;4926789;29;20028;-81
2022/03/27 00:47:59;;;;;;;14.77;8.07;;;;;;;9.84;77.00;101367.91;4940976;29;20482;-81
2022/03/27 00:50:25;;;;;;;12.85;6.82;;;;;;;9.84;76.24;101367.91;4942488;29;20034;-81
2022/03/27 00:52:50;;;;;;;15.87;7.33;;;;;;;9.89;76.25;101359.03;4926215;29;20036;-81
2022/03/27 00:55:15;;;;;;;12.35;6.07;;;;;;;9.73;77.30;101357.69;4927531;29;20266;-82
2022/03/27 00:57:41;;;;;;;11.00;7.20;;;;;;;9.77;77.42;101364.38;4926168;29;20027;-81
2022/03/27 01:00:17;;;;;;;10.85;6.70;;;;;;;9.77;77.51;101361.63;4926546;29;20274;-81
2022/03/27 01:02:42;;;;;;;11.52;5.63;;;;;;;9.66;77.83;101364.00;4926255;29;20040;-82
2022/03/27 01:05:13;;;;;;;10.37;5.90;;;;;;;9.45;78.45;101360.59;4926877;29;20042;-82
2022/03/27 01:07:39;;;;;;;12.13;6.03;;;;;;;9.38;79.08;101361.66;4926902;29;20277;-81
2022/03/27 01:10:05;;;;;;;14.68;6.82;;;;;;;9.56;78.12;101363.66;4925446;29;20039;-82
2022/03/27 01:12:39;;;;;;;12.48;6.03;;;;;;;9.61;77.45;101358.41;4926666;29;20024;-81
2022/03/27 01:15:12;;;;;;;12.05;6.80;;;;;;;9.68;77.14;101364.63;4925679;29;20119;-81
2022/03/27 01:17:37;;;;;;;11.10;4.73;;;;;;;9.22;78.69;101361.94;4925966;29;20036;-81
2022/03/27 01:20:04;;;;;;;12.40;6.43;;;;;;;9.26;79.01;101346.03;4926056;29;20038;-82
2022/03/27 01:22:29;;;;;;;12.82;6.50;;;;;;;9.34;79.03;101347.66;4944662;29;20297;-81
2022/03/27 01:24:54;;;;;;;9.77;5.90;;;;;;;9.44;78.81;101353.47;4929474;29;20118;-80
2022/03/27 01:27:20;;;;;;;9.65;5.55;;;;;;;9.50;77.90;101350.94;4925857;29;20373;-80
2022/03/27 01:29:46;;;;;;;12.40;6.80;;;;;;;9.45;78.08;101341.53;4926954;29;20042;-82
2022/03/27 01:32:14;;;;;;;13.23;6.78;;;;;;;9.31;78.74;101348.09;4924354;29;20046;-81
2022/03/27 01:34:47;;;;;;;9.38;5.10;;;;;;;9.37;78.54;101341.78;4926183;29;20028;-81
2022/03/27 01:37:14;;;;;;;10.93;5.55;;;;;;;9.44;78.79;101341.72;4924697;29;20087;-79
2022/03/27 01:39:39;;;;;;;8.93;6.32;;;;;;;9.44;79.30;101342.56;4925313;29;20483;-81
2022/03/27 01:42:05;;;;;;;14.85;7.10;;;;;;;9.61;79.12;101344.78;4908541;29;20024;-80
2022/03/27 01:44:31;;;;;;;18.05;8.10;;;;;;;9.57;79.33;101336.22;4904592;29;20043;-81
2022/03/27 01:46:57;;;;;;;15.45;7.53;;;;;;;9.63;79.18;101339.94;4913434;29;20035;-80
2022/03/27 01:49:23;;;;;;;11.95;7.18;;;;;;;9.67;79.15;101340.34;4906853;29;20471;-81
2022/03/27 01:51:48;;;;;;;19.60;8.30;;;;;;;9.50;79.59;101337.31;4911102;29;20138;-82
2022/03/27 01:54:14;;;;;;;12.40;6.28;;;;;;;9.51;79.65;101334.38;4906536;29;20095;-81
2022/03/27 01:56:41;;;;;;;17.02;6.88;;;;;;;9.56;79.34;101329.09;4906666;29;20072;-81
2022/03/27 01:59:07;;;;;;;13.57;6.75;;;;;;;9.61;78.94;101336.63;4906483;29;20110;-81
2022/03/27 02:01:34;;;;;;;14.50;7.35;;;;;;;9.62;79.02;101332.81;4905626;29;20036;-81
2022/03/27 02:04:00;;;;;;;12.65;7.25;;;;;;;9.58;79.39;101328.88;4907077;29;20040;-81
2022/03/27 02:06:25;;;;;;;16.13;8.57;;;;;;;9.58;79.24;101332.44;4906174;29;20028;-81
2022/03/27 02:08:51;;;;;;;12.25;6.75;;;;;;;9.56;79.49;101329.09;4907359;29;20021;-82
2022/03/27 02:11:17;;;;;;;13.98;7.50;;;;;;;9.59;79.20;101336.00;4906187;29;20067;-81
2022/03/27 02:13:42;;;;;;;12.68;6.95;;;;;;;9.54;79.87;101341.28;4906499;29;20051;-80
2022/03/27 02:16:21;;;;;;;16.40;8.75;;;;;;;9.37;80.20;101336.34;4906379;29;20799;-82
2022/03/27 02:18:47;;;;;;;15.40;8.20;;;;;;;9.42;80.02;101344.69;4906533;29;20777;-80
2022/03/27 02:21:12;;;;;;;16.58;8.95;;;;;;;9.30;80.19;101340.97;4907119;29;20028;-80
2022/03/27 02:23:38;;;;;;;14.20;7.85;;;;;;;9.47;79.82;101341.31;4911168;29;20761;-81
2022/03/27 02:26:03;;;;;;;14.85;7.22;;;;;;;9.44;79.66;101337.13;4925908;29;20054;-80
2022/03/27 02:28:29;;;;;;;15.70;8.80;;;;;;;9.37;79.89;101340.94;4924612;29;20505;-81
2022/03/27 02:30:54;;;;;;;12.98;8.27;;;;;;;9.46;79.69;101348.63;4925170;29;20028;-80
2022/03/27 02:33:20;;;;;;;14.30;8.02;;;;;;;9.35;80.14;101341.16;4925239;29;20074;-81
2022/03/27 02:35:45;;;;;;;14.70;8.55;;;;;;;9.36;79.81;101340.09;4924722;29;20032;-80
2022/03/27 02:38:11;;;;;;;13.07;6.93;;;;;;;9.26;80.55;101339.72;4925139;29;20036;-81
2022/03/27 02:43:41;;;;;;;18.60;8.87;;;;;;;9.27;80.56;101333.25;4921159;29;20053;-82
2022/03/27 02:46:07;;;;;;;13.77;7.90;;;;;;;9.28;80.49;101333.03;4924599;29;20032;-80
2022/03/27 02:48:32;;;;;;;17.40;9.60;;;;;;;9.30;80.57;101335.53;4923399;29;20606;-80
2022/03/27 02:50:58;;;;;;;18.98;10.75;;;;;;;9.39;80.33;101338.84;4927087;29;20042;-81
2022/03/27 02:53:23;;;;;;;22.17;9.47;;;;;;;9.25;80.71;101338.06;4943553;29;20083;-82
2022/03/27 02:55:49;;;;;;;16.73;9.52;;;;;;;9.28;80.98;101340.34;4944630;29;20266;-81
2022/03/27 02:58:14;;;;;;;18.63;10.70;;;;;;;9.35;80.88;101341.16;4943081;29;20503;-80
2022/03/27 03:00:41;;;;;;;17.83;9.48;;;;;;;9.30;81.45;101341.81;4937564;28;20043;-81
2022/03/27 03:03:10;;;;;;;19.33;8.73;;;;;;;9.37;81.04;101339.06;4923849;29;20082;-80
2022/03/27 03:05:39;;;;;;;16.67;9.30;;;;;;;9.29;81.73;101340.16;4924977;29;20036;-81
2022/03/27 03:08:06;;;;;;;20.85;10.57;;;;;;;9.33;81.71;101332.38;4924401;29;20403;-81
2022/03/27 03:10:32;;;;;;;17.98;9.50;;;;;;;9.40;81.80;101335.88;4923968;29;20066;-81
2022/03/27 03:12:58;;;;;;;15.02;9.30;;;;;;;9.46;81.60;101332.31;4925078;29;20055;-81
2022/03/27 03:15:23;;;;;;;15.43;9.07;;;;;;;9.37;82.17;101330.06;4924029;29;20026;-81
2022/03/27 03:17:49;;;;;;;20.67;12.05;;;;;;;9.49;82.35;101338.38;4924567;29;20058;-81
2022/03/27 03:20:14;;;;;;;22.88;12.13;;;;;;;9.49;82.21;101332.91;4923884;29;20031;-81
2022/03/27 03:25:43;;;;;;;18.70;12.35;;;;;;;9.56;81.84;101333.69;4917380;29;20054;-81
2022/03/27 03:28:10;;;;;;;20.77;13.40;;;;;;;9.55;81.88;101334.75;4924215;29;20039;-82
2022/03/27 03:30:35;;;;;;;20.13;10.70;;;;;;;9.60;82.10;101334.94;4924815;29;20036;-82
2022/03/27 03:33:00;;;;;;;26.13;12.27;;;;;;;9.49;82.29;101332.91;4924186;29;20055;-81
2022/03/27 03:35:25;;;;;;;26.30;13.30;;;;;;;9.62;81.47;101335.53;4925083;29;20059;-79
2022/03/27 03:37:51;;;;;;;20.52;12.32;;;;;;;9.55;82.03;101335.59;4924488;29;20060;-80
2022/03/27 03:40:16;;;;;;;21.90;13.07;;;;;;;9.62;82.06;101334.72;4907122;29;20042;-81
2022/03/27 03:42:42;;;;;;;19.15;11.52;;;;;;;9.58;81.57;101334.31;4924672;29;20164;-79
2022/03/27 03:45:07;;;;;;;20.05;11.48;;;;;;;9.46;82.17;101335.03;4924061;29;20562;-79
2022/03/27 03:47:33;;;;;;;21.38;10.23;;;;;;;9.58;82.03;101329.72;4929867;29;20063;-80
2022/03/27 03:49:58;;;;;;;20.92;11.30;;;;;;;9.53;81.87;101329.53;4942027;29;20042;-81
2022/03/27 03:52:23;;;;;;;21.33;13.40;;;;;;;9.58;81.88;101331.59;4924445;29;20721;-82
2022/03/27 03:54:49;;;;;;;22.13;11.83;;;;;;;9.65;81.50;101335.13;4924075;29;20275;-80
2022/03/27 03:57:14;;;;;;;22.58;13.13;;;;;;;9.61;81.79;101336.63;4922805;29;20262;-81
2022/03/27 03:59:39;;;;;;;22.00;13.05;;;;;;;9.65;81.16;101332.41;4923253;29;20400;-81
2022/03/27 04:02:06;;;;;;;22.80;11.65;;;;;;;9.69;81.46;101327.34;4922249;29;20535;-82
2022/03/27 04:04:32;;;;;;;22.63;13.50;;;;;;;9.67;81.35;101322.13;4924439;29;20036;-80
2022/03/27 04:06:58;;;;;;;23.30;12.70;;;;;;;9.68;80.83;101329.22;4924052;29;20043;-82
2022/03/27 04:09:23;;;;;;;25.08;13.35;;;;;;;9.66;81.29;101339.50;4924598;29;20028;-80
2022/03/27 04:11:49;;;;;;;20.20;12.63;;;;;;;9.68;81.15;101336.56;4923690;29;20099;-80
2022/03/27 04:14:14;;;;;;;19.07;11.40;;;;;;;9.70;80.97;101329.03;4928084;29;20053;-80
2022/03/27 04:16:39;;;;;;;16.67;11.10;;;;;;;9.68;81.47;101331.94;4927267;29;20266;-81
2022/03/27 04:19:05;;;;;;;22.70;12.98;;;;;;;9.60;81.45;101329.47;4927867;29;20031;-81
2022/03/27 04:21:31;;;;;;;27.17;12.63;;;;;;;9.62;81.59;101332.81;4927640;29;20035;-81
2022/03/27 04:23:56;;;;;;;20.60;12.07;;;;;;;9.60;81.32;101334.94;4927311;29;20039;-82
2022/03/27 04:26:21;;;;;;;24.25;13.13;;;;;;;9.52;82.30;101332.50;4927357;29;20044;-79
2022/03/27 04:28:47;;;;;;;24.52;11.75;;;;;;;9.64;81.74;101330.72;4926808;29;20036;-80
2022/03/27 04:31:13;;;;;;;25.88;13.32;;;;;;;9.46;82.17;101331.47;4926937;29;20036;-80
2022/03/27 04:33:38;;;;;;;24.95;12.88;;;;;;;9.61;82.38;101335.78;4927004;29;20774;-82
2022/03/27 04:36:04;;;;;;;21.38;11.85;;;;;;;9.71;81.66;101340.72;4927721;29;20031;-80
2022/03/27 04:38:30;;;;;;;20.33;10.45;;;;;;;9.73;81.55;101336.75;4926665;29;20115;-80
2022/03/27 04:40:55;;;;;;;23.65;13.68;;;;;;;9.68;82.03;101329.22;4926880;29;20036;-82
2022/03/27 04:43:22;;;;;;;25.65;13.95;;;;;;;9.68;81.66;101331.94;4927236;29;20062;-81
2022/03/27 04:45:48;;;;;;;22.85;13.63;;;;;;;9.79;81.71;101340.47;4926092;29;20098;-81
2022/03/27 04:48:14;;;;;;;20.58;13.07;;;;;;;9.73;81.67;101339.47;4935908;29;20766;-81
2022/03/27 04:50:39;;;;;;;31.13;13.45;;;;;;;9.66;81.90;101328.59;4939608;29;20031;-80
2022/03/27 04:53:04;;;;;;;26.15;13.55;;;;;;;9.73;81.41;101335.91;4926476;29;20059;-80
2022/03/27 04:55:30;;;;;;;27.60;14.52;;;;;;;9.68;81.71;101342.84;4909575;29;20119;-80
2022/03/27 04:57:55;;;;;;;27.25;15.85;;;;;;;9.60;82.21;101339.56;4927081;29;20075;-82
2022/03/27 05:00:22;;;;;;;23.63;14.35;;;;;;;9.65;82.53;101340.56;4926403;29;20114;-80
2022/03/27 05:02:47;;;;;;;24.90;13.95;;;;;;;9.69;82.05;101344.53;4926279;29;20032;-82
2022/03/27 05:05:13;;;;;;;22.60;12.93;;;;;;;9.78;81.87;101352.44;4927010;29;20040;-79
2022/03/27 05:07:40;;;;;;;27.88;14.90;;;;;;;9.72;81.90;101347.88;4925253;29;21205;-79
2022/03/27 05:10:07;;;;;;;23.30;12.73;;;;;;;9.63;82.12;101356.28;4925618;29;20035;-78
2022/03/27 05:12:32;;;;;;;20.63;12.57;;;;;;;9.51;82.36;101360.75;4924913;29;20020;-80
2022/03/27 05:14:58;;;;;;;25.80;15.27;;;;;;;9.60;82.72;101367.59;4908905;29;20812;-79
2022/03/27 05:17:23;;;;;;;27.48;15.60;;;;;;;9.76;82.09;101359.97;4926056;29;20127;-78
2022/03/27 05:19:49;;;;;;;25.98;13.50;;;;;;;9.79;81.93;101362.25;4909723;29;20118;-79
2022/03/27 05:22:15;;;;;;;24.55;14.98;;;;;;;9.77;81.92;101361.63;4925920;29;20058;-80
2022/03/27 05:24:40;;;;;;;25.15;14.85;;;;;;;9.69;82.10;101362.75;4924482;29;20111;-79
2022/03/27 05:27:05;;;;;;;28.35;15.70;;;;;;;9.54;82.88;101357.63;4925167;29;20074;-80
2022/03/27 05:29:31;;;;;;;24.67;15.52;;;;;;;9.62;82.80;101364.69;4924757;29;20024;-79
2022/03/27 05:31:58;;;;;;;25.65;15.15;;;;;;;9.77;81.99;101367.09;4925817;29;20038;-79
2022/03/27 05:34:24;;;;;;;22.73;14.05;;;;;;;9.71;82.22;101365.25;4926536;29;20031;-80
2022/03/27 05:36:49;;;;;;;26.80;17.02;;;;;;;9.72;81.98;101364.19;4909022;29;20028;-80
2022/03/27 05:39:14;;;;;;;34.17;17.55;;;;;;;9.41;82.46;101370.25;4927074;29;20024;-80
2022/03/27 05:41:40;;;;;;;28.65;15.98;;;;;;;9.42;83.32;101363.72;4925206;29;20032;-79
2022/03/27 05:44:05;;;;;;;27.23;15.25;;;;;;;9.46;82.65;101362.25;4926416;29;20122;-78
2022/03/27 05:46:31;;;;;;;27.45;16.63;;;;;;;9.55;82.80;101362.00;4922409;29;20044;-80
2022/03/27 05:48:56;;;;;;;30.38;17.75;;;;;;;9.71;82.06;101365.25;4944318;29;20019;-80
2022/03/27 05:51:21;;;;;;;31.10;16.95;;;;;;;9.63;81.81;101360.91;4933416;29;20087;-79
2022/03/27 05:53:46;;;;;;;24.25;16.30;;;;;;;9.45;82.63;101370.63;4926027;29;20028;-80
2022/03/27 05:56:12;;;;;;;32.88;17.70;;;;;;;9.40;83.21;101363.13;4925100;29;20023;-79
2022/03/27 05:58:37;;;;;;;38.65;22.23;;;;;;;9.40;82.55;101360.38;4925973;29;20062;-79
2022/03/27 06:01:04;;;;;;;34.25;20.73;;;;;;;9.39;82.44;101361.47;4925711;29;20027;-79
2022/03/27 06:03:30;;;;;;;47.85;22.95;;;;;;;9.33;83.23;101363.16;4925152;29;20138;-81
2022/03/27 06:05:55;;;;;;;52.47;28.42;;;;;;;9.38;82.88;101364.38;4925807;29;20038;-80
2022/03/27 06:08:21;;;;;;;50.92;26.85;;;;;;;9.18;83.24;101370.75;4925339;29;20064;-80
2022/03/27 06:10:48;;;;;;;60.80;31.23;;;;;;;9.25;83.44;101374.31;4925673;29;20379;-81
2022/03/27 06:13:13;;;;;;;59.78;31.52;;;;;;;9.40;82.41;101374.00;4925150;29;20382;-79
2022/03/27 06:15:39;;;;;;;56.20;28.75;;;;;;;9.58;82.04;101375.16;4925335;29;20032;-80
2022/03/27 06:18:09;;;;;;;58.22;28.20;;;;;;;9.73;81.88;101379.47;4908418;29;20123;-79
2022/03/27 06:20:34;;;;;;;49.30;24.50;;;;;;;9.50;81.57;101386.34;4924408;29;20027;-80
2022/03/27 06:22:59;;;;;;;54.70;28.48;;;;;;;9.54;82.00;101385.66;4925207;29;20505;-79
2022/03/27 06:25:27;;;;;;;58.97;27.27;;;;;;;9.66;81.10;101393.97;4925172;29;20051;-80
2022/03/27 06:28:12;;;;;;;54.35;28.65;;;;;;;9.52;81.65;101390.47;4921863;29;20284;-80
2022/03/27 06:30:37;;;;;;;59.13;27.90;;;;;;;9.64;81.05;101389.81;4924731;29;20035;-80
2022/03/27 06:33:03;;;;;;;53.58;29.48;;;;;;;9.52;81.56;101386.94;4936346;29;20262;-81
2022/03/27 06:35:29;;;;;;;47.67;23.60;;;;;;;9.56;81.30;101393.59;4943541;28;20474;-79
2022/03/27 06:37:56;;;;;;;45.28;22.85;;;;;;;9.55;81.43;101395.50;4943758;29;20035;-80
2022/03/27 06:40:21;;;;;;;43.97;24.38;;;;;;;9.63;80.69;101399.00;4941637;29;20086;-79
2022/03/27 06:42:47;;;;;;;42.35;21.23;;;;;;;9.59;80.69;101406.78;4922672;29;20035;-78
2022/03/27 06:45:14;;;;;;;37.75;20.90;;;;;;;9.55;81.22;101400.13;4924650;29;20030;-81
2022/03/27 06:47:41;;;;;;;36.83;19.80;;;;;;;9.36;81.48;101410.88;4923436;29;20491;-78
2022/03/27 06:50:08;;;;;;;35.20;20.27;;;;;;;9.61;80.66;101399.25;4921493;29;20464;-78
2022/03/27 06:52:34;;;;;;;34.63;18.90;;;;;;;9.73;80.09;101393.94;4924037;29;20028;-80
2022/03/27 06:55:00;;;;;;;33.30;18.33;;;;;;;9.58;80.41;101395.06;4922655;29;20064;-79
2022/03/27 06:57:25;;;;;;;34.50;16.33;;;;;;;9.46;80.50;101399.50;4905623;29;20494;-81
2022/03/27 07:05:20;;;;;;;38.72;18.00;;;;;;;9.66;80.82;101393.97;4941217;29;20054;-81
2022/03/27 07:07:45;;;;;;;29.80;16.25;;;;;;;9.63;79.60;101397.13;4941166;29;20031;-80
2022/03/27 07:10:11;;;;;;;30.20;17.27;;;;;;;9.58;80.43;101402.38;4939877;29;20027;-79
2022/03/27 07:12:37;;;;;;;36.42;16.52;;;;;;;9.37;81.16;101403.56;4910996;29;20324;-80
2022/03/27 07:15:06;;;;;;;29.90;18.08;;;;;;;9.54;81.29;101412.88;4924027;29;20532;-82
2022/03/27 07:17:31;;;;;;;32.95;18.70;;;;;;;9.63;80.55;101410.75;4925122;29;20036;-82
2022/03/27 07:19:57;;;;;;;27.05;16.77;;;;;;;9.64;79.97;101401.50;4925435;29;20024;-82
2022/03/27 07:22:22;;;;;;;28.63;15.85;;;;;;;9.79;79.93;101408.56;4921179;29;20164;-82
2022/03/27 07:24:48;;;;;;;31.88;16.70;;;;;;;9.86;79.73;101408.53;4918508;29;20067;-81
2022/03/27 07:27:14;;;;;;;34.15;16.05;;;;;;;9.97;79.01;101413.25;4922145;29;20418;-81
2022/03/27 07:29:40;;;;;;;35.35;15.35;;;;;;;10.06;78.99;101404.81;4920906;29;20032;-81
2022/03/27 07:32:07;;;;;;;27.95;15.07;;;;;;;10.15;78.45;101401.59;4923164;29;20050;-84
2022/03/27 07:34:33;;;;;;;34.95;17.33;;;;;;;10.15;78.26;101398.03;4939616;29;20118;-82
2022/03/27 07:36:59;;;;;;;30.48;16.10;;;;;;;10.19;77.79;101395.72;4942619;29;20160;-83
2022/03/27 07:39:24;;;;;;;31.35;17.70;;;;;;;10.19;78.50;101393.00;4941946;29;20353;-83
2022/03/27 07:41:50;;;;;;;33.53;17.97;;;;;;;10.34;78.52;101392.66;4912225;29;20039;-83
2022/03/27 07:44:15;;;;;;;37.08;16.98;;;;;;;10.37;78.32;101403.13;4901420;29;20698;-81
2022/03/27 07:46:40;;;;;;;33.42;19.02;;;;;;;10.47;77.11;101397.16;4902899;29;20075;-84
2022/03/27 07:49:06;;;;;;;37.70;18.65;;;;;;;10.35;77.79;101395.16;4927344;29;20126;-82
2022/03/27 07:51:33;;;;;;;32.00;16.88;;;;;;;10.43;77.91;101396.78;4925725;29;20036;-83
2022/03/27 07:54:02;;;;;;;37.97;18.02;;;;;;;10.47;77.48;101405.34;4926955;29;20027;-81
2022/03/27 07:56:27;;;;;;;31.05;17.83;;;;;;;10.44;77.53;101398.44;4925298;28;20063;-80
2022/03/27 07:58:53;;;;;;;33.83;17.40;;;;;;;10.52;77.10;101405.53;4925214;29;20154;-82
2022/03/27 08:01:18;;;;;;;33.72;16.80;;;;;;;10.55;76.71;101405.09;4915842;29;20047;-83
2022/03/27 08:03:44;;;;;;;28.90;14.82;;;;;;;10.58;77.02;101409.25;4926069;29;20044;-81
2022/03/27 08:06:09;;;;;;;35.38;19.25;;;;;;;10.48;76.85;101412.44;4909553;29;20032;-81
2022/03/27 08:08:34;;;;;;;29.57;15.93;;;;;;;10.61;76.67;101408.81;4925565;29;20079;-82
2022/03/27 08:11:00;;;;;;;29.42;15.80;;;;;;;10.76;75.86;101407.63;4926440;29;20626;-82
2022/03/27 08:13:25;;;;;;;29.23;15.38;;;;;;;10.82;75.04;101407.53;4923069;29;20800;-83
2022/03/27 08:15:51;;;;;;;35.90;18.77;;;;;;;10.71;75.76;101405.56;4925237;29;20122;-82
2022/03/27 08:18:16;;;;;;;33.70;18.00;;;;;;;10.90;75.17;101398.22;4924277;29;20441;-82
2022/03/27 08:20:42;;;;;;;30.42;16.60;;;;;;;10.92;75.44;101398.00;4925055;29;20066;-82
2022/03/27 08:23:07;;;;;;;29.08;15.30;;;;;;;10.76;75.84;101396.72;4925287;29;20039;-82
2022/03/27 08:28:20;;;;;;;27.90;17.88;;;;;;;11.11;75.35;101403.44;4922703;28;20059;-81
2022/03/27 08:30:46;;;;;;;26.58;15.25;;;;;;;10.98;74.32;101406.09;4923470;29;20081;-80
2022/03/27 08:33:12;;;;;;;26.63;15.30;;;;;;;10.66;75.93;101410.88;4927281;29;20040;-80
2022/03/27 08:35:41;;;;;;;27.88;13.90;;;;;;;11.03;75.06;101412.78;4927952;29;20055;-79
2022/03/27 08:38:07;;;;;;;31.05;16.63;;;;;;;11.30;74.26;101410.56;4925166;29;20498;-82
2022/03/27 08:40:33;;;;;;;25.98;13.63;;;;;;;11.22;73.07;101408.16;4924371;29;20078;-82
2022/03/27 08:42:58;;;;;;;21.83;12.73;;;;;;;10.81;75.08;101414.06;4927172;29;20150;-82
2022/03/27 08:45:23;;;;;;;28.70;16.65;;;;;;;10.92;74.58;101406.19;4931439;29;20145;-81
2022/03/27 08:47:49;;;;;;;25.40;15.50;;;;;;;10.89;75.26;101409.34;4926202;29;20050;-80
2022/03/27 08:50:34;;;;;;;28.58;14.85;;;;;;;11.24;74.51;101410.66;4926089;29;20114;-80
2022/03/27 08:53:05;;;;;;;28.10;14.63;;;;;;;11.46;73.12;101408.25;4930814;29;20043;-80
2022/03/27 08:55:37;;;;;;;28.77;15.27;;;;;;;11.40;73.63;101407.28;4932139;29;20126;-81
2022/03/27 08:58:03;;;;;;;32.35;14.77;;;;;;;11.06;73.74;101399.53;4930409;29;20052;-81
2022/03/27 09:00:33;;;;;;;29.95;14.80;;;;;;;11.44;73.49;101399.47;4928427;29;20055;-81
2022/03/27 09:03:00;;;;;;;31.35;14.57;;;;;;;11.63;72.69;101397.53;4931130;29;20050;-80
2022/03/27 09:05:26;;;;;;;32.33;15.10;;;;;;;11.78;72.29;101399.84;4932347;29;20026;-81
2022/03/27 09:07:53;;;;;;;28.20;13.73;;;;;;;11.53;71.34;101398.06;4934883;29;20349;-82
2022/03/27 09:10:19;;;;;;;23.52;14.70;;;;;;;11.35;73.43;101401.66;4931813;29;20520;-81
2022/03/27 09:12:45;;;;;;;24.83;14.65;;;;;;;11.66;73.08;101405.25;4938636;29;20123;-82
2022/03/27 09:15:12;;;;;;;22.10;13.25;;;;;;;11.82;72.62;101408.41;4931369;29;20063;-81
2022/03/27 09:17:56;;;;;;;22.30;14.02;;;;;;;12.01;71.80;101403.72;4924059;29;20032;-81
2022/03/27 09:20:55;;;;;;;23.13;12.73;;;;;;;11.84;71.28;101405.44;4924657;29;20028;-82
2022/03/27 09:23:25;;;;;;;21.40;12.35;;;;;;;11.83;72.60;101403.78;4931732;29;20042;-80
2022/03/27 09:25:55;;;;;;;25.63;15.38;;;;;;;11.84;72.03;101414.47;4933808;29;20043;-81
2022/03/27 09:28:27;;;;;;;21.65;12.35;;;;;;;11.92;71.34;101405.09;4930310;28;20050;-81
2022/03/27 09:30:53;;;;;;;25.05;12.40;;;;;;;11.94;71.87;101396.69;4932263;29;20027;-81
2022/03/27 09:33:47;;;;;;;20.42;9.88;;;;;;;11.82;71.54;101402.13;4928737;29;20131;-78
2022/03/27 09:36:20;;;;;;;17.00;9.93;;;;;;;11.89;72.31;101408.31;4925900;29;20035;-81
2022/03/27 09:39:02;;;;;;;18.80;10.80;;;;;;;12.03;72.31;101409.78;4923632;29;20318;-82
2022/03/27 09:41:47;;;;;;;18.85;9.85;;;;;;;12.28;71.41;101402.47;4923482;29;20294;-81
2022/03/27 09:44:28;;;;;;;17.83;8.73;;;;;;;12.28;71.88;101402.47;4927188;29;20054;-81
2022/03/27 09:47:01;;;;;;;20.85;9.93;;;;;;;11.99;71.21;101405.00;4928951;29;20250;-81
2022/03/27 09:49:36;;;;;;;17.38;9.05;;;;;;;11.82;72.42;101393.91;4931570;29;20561;-81
2022/03/27 09:52:05;;;;;;;16.38;8.93;;;;;;;11.93;72.76;101401.31;4927765;29;20448;-81
2022/03/27 09:54:59;;;;;;;23.20;13.38;;;;;;;11.79;72.09;101396.06;4932618;29;20063;-81
2022/03/27 09:57:35;;;;;;;16.73;9.77;;;;;;;11.97;72.29;101401.66;4931751;28;20069;-81
2022/03/27 10:00:20;;;;;;;17.52;8.88;;;;;;;12.11;71.56;101397.69;4923871;29;20020;-83
2022/03/27 10:02:47;;;;;;;17.30;8.95;;;;;;;12.14;70.95;101401.88;4922660;29;20046;-89
2022/03/27 10:05:17;;;;;;;21.48;8.20;;;;;;;12.24;70.88;101395.81;4924224;29;20175;-82
2022/03/27 10:07:45;;;;;;;13.95;8.10;;;;;;;12.43;70.86;101393.78;4930450;29;20333;-83
2022/03/27 10:10:21;;;;;;;16.65;8.85;;;;;;;12.72;69.28;101402.13;4928385;29;20039;-83
2022/03/27 10:12:51;;;;;;;18.38;10.38;;;;;;;12.82;69.03;101393.31;4922215;29;20488;-81
2022/03/27 10:15:19;;;;;;;15.68;8.60;;;;;;;12.94;68.71;101393.28;4923885;29;20038;-83
2022/03/27 10:18:00;;;;;;;19.70;10.27;;;;;;;13.16;68.30;101384.41;4922988;29;20031;-82
2022/03/27 10:20:32;;;;;;;22.52;9.63;;;;;;;13.13;68.17;101379.44;4923636;29;20039;-83
2022/03/27 10:23:07;;;;;;;20.58;12.00;;;;;;;13.16;67.36;101387.16;4923093;29;20044;-83
2022/03/27 10:25:35;;;;;;;21.00;9.52;;;;;;;13.38;66.34;101380.19;4923390;29;20048;-83
2022/03/27 10:28:01;;;;;;;37.10;11.50;;;;;;;13.35;65.68;101380.66;4922619;28;20040;-81
2022/03/27 10:30:27;;;;;;;19.58;10.15;;;;;;;13.41;66.09;101374.22;4923359;29;20047;-83
2022/03/27 10:32:53;;;;;;;20.65;11.18;;;;;;;13.26;65.99;101374.75;4933979;29;20345;-83
2022/03/27 10:35:29;;;;;;;23.58;12.80;;;;;;;13.03;66.84;101379.22;4942818;29;20443;-83
2022/03/27 10:38:04;;;;;;;22.00;12.25;;;;;;;13.08;67.16;101365.63;4942858;29;20032;-83
2022/03/27 10:40:42;;;;;;;19.60;10.07;;;;;;;13.22;66.59;101370.84;4937601;29;20032;-83
2022/03/27 10:43:23;;;;;;;23.63;12.52;;;;;;;13.06;65.61;101365.03;4922607;29;20562;-83
2022/03/27 10:46:18;;;;;;;21.27;10.90;;;;;;;12.80;66.76;101364.50;4923770;29;20149;-83
2022/03/27 10:48:45;;;;;;;19.17;12.10;;;;;;;12.67;66.76;101360.94;4923068;29;20480;-82
2022/03/27 10:51:32;;;;;;;18.20;10.18;;;;;;;12.91;67.22;101351.88;4920893;29;20349;-81
2022/03/27 10:54:04;;;;;;;26.90;12.95;;;;;;;13.26;65.88;101350.91;4916709;29;20039;-83
2022/03/27 10:56:51;;;;;;;23.20;12.35;;;;;;;13.55;64.38;101347.38;4920749;29;20526;-81
2022/03/27 10:59:24;;;;;;;17.90;10.15;;;;;;;13.70;64.36;101338.59;4919667;29;20075;-82
2022/03/27 11:02:00;;;;;;;23.08;12.95;;;;;;;13.89;64.35;101343.88;4919814;29;20548;-81
2022/03/27 11:04:37;;;;;;;20.42;10.38;;;;;;;13.91;63.29;101338.97;4917959;29;20466;-82
2022/03/27 11:07:15;;;;;;;23.30;11.80;;;;;;;14.03;63.49;101346.25;4922567;29;20036;-81
2022/03/27 11:09:44;;;;;;;19.13;10.48;;;;;;;14.25;63.36;101340.84;4921347;29;20035;-83
2022/03/27 11:12:25;;;;;;;22.95;11.93;;;;;;;14.17;63.41;101339.38;4922331;29;20061;-83
2022/03/27 11:14:59;;;;;;;19.98;12.07;;;;;;;14.43;62.55;101333.41;4923476;29;20036;-81
2022/03/27 11:17:34;;;;;;;;;;;;;;;14.55;61.58;101336.88;4921400;29;20143;-83
2022/03/27 11:20:02;;;;;;;20.98;11.80;;;;;;;14.38;61.42;101330.63;4924346;29;19933;-82
2022/03/27 11:22:51;;;;;;;20.77;11.97;;;;;;;14.75;60.57;101327.25;4918885;29;20110;-83
2022/03/27 11:28:54;;;;;;;25.52;13.75;;;;;;;15.08;60.29;101324.66;4903021;29;20223;-83
2022/03/27 11:31:25;;;;;;;21.95;11.43;;;;;;;15.12;59.71;101322.22;4901662;29;20143;-82
2022/03/27 11:34:09;;;;;;;23.63;10.55;;;;;;;15.36;58.64;101316.44;4900870;29;20050;-82
2022/03/27 11:36:36;;;;;;;26.00;12.68;;;;;;;15.32;57.58;101321.63;4902315;29;20039;-83
2022/03/27 11:39:08;;;;;;;18.33;10.45;;;;;;;15.31;59.04;101302.66;4903459;29;20154;-82